createdAt,value
2023-03-19T00:04:02.029Z,6.70
2023-03-19T00:09:05.228Z,6.66
2023-03-19T00:14:07.450Z,6.56
2023-03-19T00:19:09.176Z,6.46
2023-03-19T00:24:12.583Z,6.35
2023-03-19T00:29:14.758Z,6.35
2023-03-19T00:34:16.440Z,6.20
2023-03-19T00:39:19.495Z,6.07
2023-03-19T00:44:21.442Z,6.05
2023-03-19T00:49:23.411Z,5.98
2023-03-19T00:54:26.445Z,5.85
2023-03-19T00:59:28.162Z,5.84
2023-03-19T01:04:29.979Z,5.81
2023-03-19T01:09:33.636Z,5.73
2023-03-19T01:14:35.813Z,5.70
2023-03-19T01:19:37.950Z,5.68
2023-03-19T01:24:41.438Z,5.69
2023-03-19T01:29:43.535Z,5.67
2023-03-19T01:34:45.550Z,5.76
2023-03-19T01:39:51.212Z,5.77
2023-03-19T01:44:53.483Z,5.78
2023-03-19T01:49:57.332Z,5.85
2023-03-19T01:55:03.122Z,5.94
2023-03-19T02:00:07.085Z,6.04
2023-03-19T02:05:12.147Z,6.12
2023-03-19T02:10:17.447Z,6.30
2023-03-19T02:15:20.088Z,6.33
2023-03-19T02:20:27.517Z,6.40
2023-03-19T02:25:38.186Z,6.60
2023-03-19T02:30:43.349Z,6.63
2023-03-19T02:35:47.718Z,6.68
2023-03-19T02:40:58.351Z,6.90
2023-03-19T02:46:02.278Z,7.04
2023-03-19T02:51:04.842Z,7.00
2023-03-19T02:56:07.731Z,6.95
2023-03-19T03:01:11.282Z,6.95
2023-03-19T03:06:13.502Z,7.03
2023-03-19T03:11:15.595Z,6.96
2023-03-19T03:16:19.266Z,6.87
2023-03-19T03:21:21.662Z,6.94
2023-03-19T03:26:23.715Z,7.14
2023-03-19T03:31:33.119Z,7.05
2023-03-19T03:36:35.219Z,6.96
2023-03-19T03:41:37.248Z,6.91
2023-03-19T03:46:40.992Z,6.85
2023-03-19T03:51:42.717Z,6.80
2023-03-19T03:56:44.924Z,6.77
2023-03-19T04:01:48.491Z,6.72
2023-03-19T04:06:52.515Z,6.72
2023-03-19T04:11:54.612Z,6.76
2023-03-19T04:16:58.115Z,6.80
2023-03-19T04:22:00.225Z,6.84
2023-03-19T04:27:02.316Z,7.05
2023-03-19T04:32:06.646Z,7.30
2023-03-19T04:37:09.250Z,7.18
2023-03-19T04:42:11.107Z,7.00
2023-03-19T04:47:14.830Z,6.94
2023-03-19T04:52:16.931Z,6.89
2023-03-19T04:57:19.152Z,6.86
2023-03-19T05:02:22.744Z,6.82
2023-03-19T05:07:24.869Z,6.78
2023-03-19T05:12:26.902Z,6.68
2023-03-19T05:17:30.768Z,6.59
2023-03-19T05:22:40.470Z,6.52
2023-03-19T05:27:42.532Z,6.49
2023-03-19T05:32:46.250Z,6.46
2023-03-19T05:37:48.374Z,6.52
2023-03-19T05:42:51.182Z,6.49
2023-03-19T05:47:54.593Z,6.49
2023-03-19T05:52:57.084Z,6.56
2023-03-19T05:57:59.534Z,6.73
2023-03-19T06:03:03.262Z,6.82
2023-03-19T06:08:05.903Z,7.10
2023-03-19T06:13:07.777Z,7.04
2023-03-19T06:18:13.373Z,7.13
2023-03-19T06:23:16.394Z,7.28
2023-03-19T06:28:18.901Z,7.30
2023-03-19T06:33:22.416Z,7.40
2023-03-19T06:38:24.725Z,7.61
2023-03-19T06:43:27.048Z,7.37
2023-03-19T06:48:30.586Z,7.52
2023-03-19T06:53:33.721Z,7.64
2023-03-19T06:58:36.007Z,7.72
2023-03-19T07:03:39.705Z,7.79
2023-03-19T07:08:41.886Z,7.61
2023-03-19T07:13:44.399Z,7.55
2023-03-19T07:18:47.781Z,7.58
2023-03-19T07:23:49.996Z,7.64
2023-03-19T07:28:52.290Z,7.67
2023-03-19T07:33:55.863Z,7.74
2023-03-19T07:38:58.467Z,7.90
2023-03-19T07:44:00.769Z,8.12
2023-03-19T07:49:05.264Z,8.24
2023-03-19T07:54:07.640Z,8.46
2023-03-19T07:59:09.820Z,8.33
2023-03-19T08:04:13.356Z,8.16
2023-03-19T08:09:15.392Z,8.08
2023-03-19T08:14:17.318Z,8.02
2023-03-19T08:19:20.896Z,7.90
2023-03-19T08:24:22.992Z,7.79
2023-03-19T08:29:25.090Z,7.82
2023-03-19T08:34:28.398Z,7.84
2023-03-19T08:39:30.466Z,7.80
2023-03-19T08:44:32.243Z,8.25
2023-03-19T08:49:35.757Z,8.75
2023-03-19T08:54:37.571Z,9.24
2023-03-19T08:59:39.727Z,9.39
2023-03-19T09:04:43.058Z,9.57
2023-03-19T09:09:45.610Z,10.08
2023-03-19T09:14:47.417Z,10.30
2023-03-19T09:19:52.887Z,10.53
2023-03-19T09:24:55.015Z,10.73
2023-03-19T09:29:56.782Z,10.75
2023-03-19T09:35:00.425Z,11.12
2023-03-19T09:40:02.492Z,11.40
2023-03-19T09:45:12.225Z,11.31
2023-03-19T09:50:17.460Z,11.41
2023-03-19T09:55:36.009Z,12.33
2023-03-19T10:00:39.593Z,12.30
2023-03-19T10:05:55.041Z,12.21
2023-03-19T10:11:15.314Z,12.76
2023-03-19T10:16:21.426Z,13.54
2023-03-19T10:21:33.072Z,13.80
2023-03-19T10:26:35.827Z,15.30
2023-03-19T10:31:43.924Z,15.39
2023-03-19T10:36:47.597Z,14.53
2023-03-19T10:41:57.684Z,14.88
2023-03-19T10:47:08.886Z,14.14
2023-03-19T10:52:22.676Z,14.09
2023-03-19T10:57:27.950Z,13.75
2023-03-19T11:02:31.075Z,13.97
2023-03-19T11:07:36.652Z,14.06
2023-03-19T11:12:38.930Z,14.06
2023-03-19T11:17:46.090Z,13.58
2023-03-19T11:22:49.901Z,13.75
2023-03-19T11:27:59.275Z,13.32
2023-03-19T11:33:25.908Z,13.76
2023-03-19T11:38:39.597Z,13.82
2023-03-19T11:43:47.022Z,14.03
2023-03-19T11:49:11.256Z,14.19
2023-03-19T11:54:23.803Z,14.58
2023-03-19T11:59:38.032Z,14.56
2023-03-19T12:04:59.016Z,14.57
2023-03-19T12:10:20.386Z,14.80
2023-03-19T12:15:27.942Z,15.24
2023-03-19T12:20:40.694Z,15.64
2023-03-19T12:25:57.685Z,15.88
2023-03-19T12:31:19.117Z,16.33
2023-03-19T12:36:25.912Z,16.90
2023-03-19T12:41:30.692Z,16.90
2023-03-19T12:46:36.482Z,16.99
2023-03-19T12:51:42.104Z,17.29
2023-03-19T12:56:51.733Z,17.26
2023-03-19T13:02:01.888Z,17.39
2023-03-19T13:07:10.065Z,17.09
2023-03-19T13:12:20.704Z,17.54
2023-03-19T13:17:27.518Z,17.45
2023-03-19T13:22:35.210Z,16.93
2023-03-19T13:27:38.715Z,16.95
2023-03-19T13:32:43.121Z,16.66
2023-03-19T13:37:48.021Z,16.95
2023-03-19T13:42:57.337Z,17.25
2023-03-19T13:48:24.705Z,17.53
2023-03-19T13:53:40.532Z,17.43
2023-03-19T13:58:49.481Z,17.24
2023-03-19T14:03:56.043Z,17.69
2023-03-19T14:08:58.955Z,17.81
2023-03-19T14:14:05.584Z,17.40
2023-03-19T14:19:12.470Z,17.58
2023-03-19T14:29:55.144Z,17.19
2023-03-19T14:34:57.797Z,17.51
2023-03-19T14:40:09.582Z,17.56
2023-03-19T14:45:54.904Z,17.70
2023-03-19T14:51:25.332Z,17.68
2023-03-19T14:56:31.993Z,17.45
2023-03-19T15:01:40.726Z,17.42
2023-03-19T15:06:44.966Z,17.44
2023-03-19T15:12:26.926Z,17.18
2023-03-19T15:17:31.600Z,17.37
2023-03-19T15:22:34.702Z,17.23
2023-03-19T15:27:36.903Z,16.96
2023-03-19T15:33:19.721Z,16.88
2023-03-19T15:38:08.860Z,16.85
2023-03-19T15:43:12.800Z,16.88
2023-03-19T15:48:21.481Z,16.73
2023-03-19T15:53:26.207Z,16.65
2023-03-19T15:58:32.161Z,16.51
2023-03-19T16:03:38.106Z,16.17
2023-03-19T16:08:47.313Z,15.89
2023-03-19T16:14:00.309Z,15.71
2023-03-19T16:19:04.063Z,15.62
2023-03-19T16:24:18.806Z,15.50
2023-03-19T16:29:24.031Z,15.46
2023-03-19T16:34:33.270Z,15.46
2023-03-19T16:39:37.240Z,15.40
2023-03-19T16:44:41.024Z,15.32
2023-03-19T16:49:46.353Z,15.09
2023-03-19T16:54:48.941Z,14.95
2023-03-19T16:59:51.141Z,14.69
2023-03-19T17:04:54.453Z,14.45
2023-03-19T17:09:56.262Z,14.14
2023-03-19T17:14:58.053Z,13.90
2023-03-19T17:20:01.508Z,13.62
2023-03-19T17:25:03.414Z,13.32
2023-03-19T17:30:06.473Z,13.02
2023-03-19T17:35:16.267Z,12.71
2023-03-19T17:40:20.453Z,12.50
2023-03-19T17:45:26.517Z,12.21
2023-03-19T17:50:31.540Z,12.09
2023-03-19T17:55:33.831Z,11.94
2023-03-19T18:00:35.879Z,11.98
2023-03-19T18:05:39.524Z,12.04
2023-03-19T18:10:42.165Z,11.97
2023-03-19T18:15:45.531Z,11.86
2023-03-19T18:20:50.617Z,11.76
2023-03-19T18:25:53.306Z,11.66
2023-03-19T18:30:56.124Z,11.68
2023-03-19T18:36:02.936Z,11.74
2023-03-19T18:41:05.478Z,11.89
2023-03-19T18:46:12.632Z,11.94
2023-03-19T18:51:17.142Z,12.01
2023-03-19T18:56:22.931Z,11.95
2023-03-19T19:01:26.594Z,11.89
2023-03-19T19:06:46.415Z,11.84
2023-03-19T19:11:49.973Z,11.87
2023-03-19T19:16:54.041Z,11.89
2023-03-19T19:21:57.653Z,11.98
2023-03-19T19:27:00.304Z,12.13
2023-03-19T19:32:03.328Z,12.16
2023-03-19T19:37:14.415Z,12.23
2023-03-19T19:42:19.524Z,12.36
2023-03-19T19:47:21.874Z,12.36
2023-03-19T19:52:25.708Z,12.38
2023-03-19T19:57:28.080Z,12.41
2023-03-19T20:02:30.652Z,12.38
2023-03-19T20:07:34.900Z,12.28
2023-03-19T20:12:37.464Z,12.18
2023-03-19T20:17:40.193Z,12.13
2023-03-19T20:22:43.472Z,12.05
2023-03-19T20:27:47.240Z,11.97
2023-03-19T20:32:49.805Z,11.92
2023-03-19T20:37:55.316Z,11.82
2023-03-19T20:42:57.922Z,11.83
2023-03-19T20:48:00.075Z,11.80
2023-03-19T20:53:03.559Z,11.76
2023-03-19T20:58:21.043Z,11.69
2023-03-19T21:03:24.724Z,11.62
2023-03-19T21:08:33.428Z,11.57
2023-03-19T21:13:37.021Z,11.48
2023-03-19T21:18:39.087Z,11.39
2023-03-19T21:23:47.855Z,11.36
2023-03-19T21:28:51.960Z,11.38
2023-03-19T21:33:54.335Z,11.38
2023-03-19T21:38:58.693Z,11.38
2023-03-19T21:44:03.553Z,11.36
2023-03-19T21:49:10.781Z,11.28
2023-03-19T21:54:14.321Z,11.21
2023-03-19T21:59:19.540Z,11.14
2023-03-19T22:04:21.632Z,11.09
2023-03-19T22:09:25.071Z,10.98
2023-03-19T22:14:27.166Z,10.92
2023-03-19T22:19:29.602Z,10.84
2023-03-19T22:24:33.128Z,10.89
2023-03-19T22:29:35.324Z,10.89
2023-03-19T22:34:37.538Z,10.91
2023-03-19T22:39:41.189Z,10.91
2023-03-19T22:44:43.323Z,10.89
2023-03-19T22:49:45.755Z,10.86
2023-03-19T22:54:49.240Z,10.82
2023-03-19T22:59:51.426Z,10.75
2023-03-19T23:04:53.498Z,10.66
2023-03-19T23:09:57.183Z,10.59
2023-03-19T23:15:02.406Z,10.46
2023-03-19T23:20:12.493Z,10.28
2023-03-19T23:25:18.748Z,10.01
2023-03-19T23:30:24.150Z,9.77
2023-03-19T23:35:27.969Z,9.56
2023-03-19T23:40:33.447Z,9.37
2023-03-19T23:45:38.326Z,9.16
2023-03-19T23:50:40.634Z,9.14
2023-03-19T23:55:44.176Z,9.15
